Time;durP1;ratioP1;P1;durP2;ratioP2;P2;SDS_P1;SDS_P2;PMS_P1;PMS_P2;Temp;Humidity;BMP_temperature;BMP_pressure;BME280_temperature;BME280_humidity;BME280_pressure;Samples;Min_cycle;Max_cycle;Signal;HPM_P1;HPM_P2
2022/12/20 00:01:17;;;;;;;6.32;3.78;;;9.60;83.90;;;;;;5118978;27;20042;-71
2022/12/20 00:03:43;;;;;;;7.07;4.57;;;9.60;83.80;;;;;;5118567;27;20070;-71
2022/12/20 00:06:10;;;;;;;5.45;4.07;;;9.60;83.70;;;;;;5101842;27;20103;-72
2022/12/20 00:08:37;;;;;;;6.25;3.90;;;9.60;83.60;;;;;;5118549;27;20371;-72
2022/12/20 00:11:05;;;;;;;6.65;4.07;;;9.60;83.50;;;;;;5118262;27;20088;-71
2022/12/20 00:13:32;;;;;;;6.82;3.67;;;9.60;83.40;;;;;;5118224;27;20047;-71
2022/12/20 00:16:10;;;;;;;8.85;3.50;;;9.60;83.30;;;;;;5132406;27;20043;-72
2022/12/20 00:18:38;;;;;;;5.60;3.58;;;9.50;83.10;;;;;;5122337;27;20050;-72
2022/12/20 00:21:05;;;;;;;7.82;3.72;;;9.50;83.10;;;;;;5118370;27;20085;-72
2022/12/20 00:23:32;;;;;;;5.38;3.35;;;9.50;83.00;;;;;;5101314;27;20069;-72
2022/12/20 00:26:12;;;;;;;5.00;3.30;;;9.50;83.00;;;;;;5118403;27;20047;-74
2022/12/20 00:28:39;;;;;;;5.78;3.45;;;9.50;83.00;;;;;;5125742;27;20055;-72
2022/12/20 00:31:06;;;;;;;6.15;3.63;;;9.50;83.00;;;;;;5135147;27;20043;-72
2022/12/20 00:33:33;;;;;;;7.30;3.85;;;9.50;82.90;;;;;;5117775;27;20039;-72
2022/12/20 00:35:59;;;;;;;5.15;3.22;;;9.50;82.90;;;;;;5117957;27;20045;-72
2022/12/20 00:38:25;;;;;;;7.72;3.83;;;9.60;83.00;;;;;;5124046;27;20118;-71
2022/12/20 00:41:06;;;;;;;4.93;3.15;;;9.60;82.90;;;;;;5117620;27;20088;-72
2022/12/20 00:43:33;;;;;;;7.15;3.58;;;9.60;82.80;;;;;;5117636;27;20039;-71
2022/12/20 00:45:59;;;;;;;6.20;3.50;;;9.60;82.80;;;;;;5117929;27;20039;-71
2022/12/20 00:48:25;;;;;;;5.63;3.70;;;9.60;82.80;;;;;;5117714;27;20039;-71
2022/12/20 00:50:51;;;;;;;5.05;3.33;;;9.60;82.70;;;;;;5121400;27;20118;-71
2022/12/20 00:53:17;;;;;;;6.82;3.70;;;9.60;82.60;;;;;;5117706;27;20050;-71
2022/12/20 00:55:46;;;;;;;5.05;3.25;;;9.60;82.50;;;;;;5084800;28;20391;-71
2022/12/20 00:58:12;;;;;;;5.07;3.10;;;9.60;82.40;;;;;;5109204;27;20409;-71
2022/12/20 01:00:39;;;;;;;6.07;3.72;;;9.60;82.30;;;;;;5100582;27;20050;-71
2022/12/20 01:03:05;;;;;;;6.00;3.35;;;9.60;82.30;;;;;;5117505;27;20043;-71
2022/12/20 01:05:31;;;;;;;5.60;3.30;;;9.60;82.20;;;;;;5111422;27;20031;-71
2022/12/20 01:07:58;;;;;;;4.63;3.33;;;9.60;82.10;;;;;;5117282;27;20035;-71
2022/12/20 01:10:24;;;;;;;5.20;3.42;;;9.60;82.40;;;;;;5117316;27;20039;-71
2022/12/20 01:12:49;;;;;;;5.72;2.72;;;9.60;81.90;;;;;;5117518;27;20035;-71
2022/12/20 01:15:15;;;;;;;7.75;3.20;;;9.60;81.90;;;;;;5117137;27;20039;-72
2022/12/20 01:17:41;;;;;;;6.25;3.47;;;9.60;81.70;;;;;;5116897;27;20054;-72
2022/12/20 01:20:07;;;;;;;6.88;3.30;;;9.60;81.70;;;;;;5118492;27;20035;-72
2022/12/20 01:22:33;;;;;;;4.20;2.90;;;9.60;81.70;;;;;;5117123;27;20463;-71
2022/12/20 01:24:58;;;;;;;5.82;3.45;;;9.60;81.60;;;;;;5117129;27;20091;-71
2022/12/20 01:27:24;;;;;;;6.75;3.42;;;9.50;81.50;;;;;;5116959;27;20058;-71
2022/12/20 01:29:50;;;;;;;6.65;4.15;;;9.50;81.50;;;;;;5100040;27;20070;-71
2022/12/20 01:32:16;;;;;;;5.82;3.90;;;9.60;81.50;;;;;;5116795;27;20118;-71
2022/12/20 01:34:41;;;;;;;7.70;3.53;;;9.50;81.40;;;;;;5116725;27;20047;-71
2022/12/20 01:37:07;;;;;;;4.97;3.10;;;9.50;81.40;;;;;;5116267;27;20495;-71
2022/12/20 01:39:33;;;;;;;5.88;3.65;;;9.50;81.40;;;;;;5116766;27;20106;-71
2022/12/20 01:41:59;;;;;;;7.15;3.78;;;9.50;81.40;;;;;;5134867;27;20033;-71
2022/12/20 01:44:24;;;;;;;5.72;3.70;;;9.50;81.40;;;;;;5099258;27;20047;-71
2022/12/20 01:46:51;;;;;;;4.80;3.08;;;9.50;81.30;;;;;;5116145;27;20042;-71
2022/12/20 01:49:28;;;;;;;5.90;3.35;;;9.40;81.30;;;;;;5116651;27;20122;-72
2022/12/20 01:52:12;;;;;;;7.25;3.70;;;9.50;81.30;;;;;;5115849;27;20039;-71
2022/12/20 01:54:41;;;;;;;6.88;3.38;;;9.40;81.20;;;;;;5096128;28;20498;-71
2022/12/20 01:57:13;;;;;;;4.78;3.05;;;9.40;81.40;;;;;;5089629;27;20039;-71
2022/12/20 01:59:40;;;;;;;6.78;3.70;;;9.40;81.40;;;;;;5116520;27;20383;-67
2022/12/20 02:02:09;;;;;;;4.18;2.85;;;9.40;81.40;;;;;;5115626;27;20095;-67
2022/12/20 02:04:35;;;;;;;5.25;3.35;;;9.40;81.50;;;;;;5116005;27;20074;-67
2022/12/20 02:07:03;;;;;;;5.78;2.85;;;9.40;81.60;;;;;;5116298;27;20563;-67
2022/12/20 02:09:31;;;;;;;5.28;2.83;;;9.40;81.60;;;;;;5115927;27;20099;-67
2022/12/20 02:12:02;;;;;;;8.30;4.13;;;9.40;81.70;;;;;;5115617;27;20046;-67
2022/12/20 02:14:52;;;;;;;4.82;2.97;;;9.40;81.70;;;;;;5115543;27;20067;-67
2022/12/20 02:17:45;;;;;;;4.07;3.20;;;9.40;81.90;;;;;;5115979;27;20050;-67
2022/12/20 02:20:48;;;;;;;6.00;3.05;;;9.40;81.80;;;;;;5115623;27;20045;-67
2022/12/20 02:23:32;;;;;;;4.82;2.78;;;9.40;81.90;;;;;;5115918;27;20486;-70
2022/12/20 02:26:24;;;;;;;6.00;3.20;;;9.40;82.00;;;;;;5115907;27;20049;-70
2022/12/20 02:29:15;;;;;;;6.07;3.03;;;9.50;82.20;;;;;;5115270;27;20474;-70
2022/12/20 02:32:21;;;;;;;7.00;3.17;;;9.40;82.30;;;;;;5117236;27;20054;-72
2022/12/20 02:34:47;;;;;;;7.25;3.92;;;9.50;82.40;;;;;;5113937;27;20054;-71
2022/12/20 02:37:12;;;;;;;6.25;3.78;;;9.50;82.60;;;;;;5115424;27;20057;-71
2022/12/20 02:39:41;;;;;;;5.05;3.25;;;9.50;82.70;;;;;;5131530;27;20039;-72
2022/12/20 02:42:12;;;;;;;6.53;2.90;;;9.50;82.90;;;;;;5128601;27;20031;-71
2022/12/20 02:47:35;;;;;;;4.72;2.90;;;9.60;83.30;;;;;;5115630;27;20122;-71
2022/12/20 02:50:03;;;;;;;6.93;4.25;;;9.50;83.40;;;;;;5115723;27;20589;-68
2022/12/20 02:52:30;;;;;;;4.82;3.17;;;9.60;83.70;;;;;;5115421;27;20127;-67
2022/12/20 02:54:57;;;;;;;8.27;3.15;;;9.60;83.90;;;;;;5112893;27;20394;-68
2022/12/20 02:57:26;;;;;;;5.40;3.65;;;9.60;84.10;;;;;;5097189;27;20039;-67
2022/12/20 03:00:02;;;;;;;5.85;3.67;;;9.60;84.30;;;;;;5098142;28;20245;-67
2022/12/20 03:03:21;;;;;;;5.15;3.42;;;9.60;84.40;;;;;;5118158;28;20046;-68
2022/12/20 03:05:16;;;;;;;5.40;3.30;;;9.60;84.50;;;;;;5114866;28;20047;-68
2022/12/20 03:07:42;;;;;;;9.32;4.07;;;9.60;84.70;;;;;;5115279;28;20042;-67
2022/12/20 03:10:08;;;;;;;6.45;3.80;;;9.60;85.20;;;;;;5129148;28;20043;-68
2022/12/20 03:12:34;;;;;;;7.18;3.60;;;9.60;84.90;;;;;;5124138;28;20043;-68
2022/12/20 03:14:59;;;;;;;7.40;3.67;;;9.70;85.00;;;;;;5114847;28;20050;-68
2022/12/20 03:17:25;;;;;;;7.20;3.38;;;9.70;85.10;;;;;;5115159;28;20068;-68
2022/12/20 03:19:51;;;;;;;4.75;3.30;;;9.70;85.20;;;;;;5098281;28;20046;-67
2022/12/20 03:22:16;;;;;;;6.00;3.70;;;9.70;85.30;;;;;;5114662;28;20470;-68
2022/12/20 03:24:42;;;;;;;6.40;3.50;;;9.70;85.40;;;;;;5115127;28;20048;-67
2022/12/20 03:27:08;;;;;;;8.07;3.78;;;9.70;85.50;;;;;;5098624;28;20039;-68
2022/12/20 03:29:33;;;;;;;4.72;3.45;;;9.70;85.50;;;;;;5127704;28;20051;-68
2022/12/20 03:31:59;;;;;;;9.10;4.18;;;9.70;85.60;;;;;;5132767;28;20039;-68
2022/12/20 03:34:25;;;;;;;5.25;3.58;;;9.70;85.60;;;;;;5098318;28;20035;-68
2022/12/20 03:36:50;;;;;;;7.28;3.80;;;9.70;85.60;;;;;;5098413;28;20046;-68
2022/12/20 03:39:16;;;;;;;6.20;3.85;;;9.70;85.70;;;;;;5097997;28;20390;-68
2022/12/20 03:41:41;;;;;;;6.20;3.65;;;9.70;85.70;;;;;;5114432;28;20038;-68
2022/12/20 03:44:07;;;;;;;5.80;3.63;;;9.70;85.80;;;;;;5115049;28;20123;-68
2022/12/20 03:46:34;;;;;;;7.50;3.80;;;9.70;85.80;;;;;;5114982;28;20035;-68
2022/12/20 03:49:00;;;;;;;4.63;3.20;;;9.70;85.80;;;;;;5114849;28;20051;-68
2022/12/20 03:51:25;;;;;;;8.27;3.88;;;9.70;85.80;;;;;;5115987;28;20394;-67
2022/12/20 03:53:51;;;;;;;8.30;4.22;;;9.70;85.70;;;;;;5114607;28;20055;-67
2022/12/20 03:56:18;;;;;;;5.38;3.53;;;9.70;85.70;;;;;;5114987;28;20046;-67
2022/12/20 03:58:43;;;;;;;6.05;3.95;;;9.70;85.70;;;;;;5114613;28;20047;-68
2022/12/20 04:01:24;;;;;;;7.63;4.10;;;9.70;85.70;;;;;;5098012;28;20039;-68
2022/12/20 04:03:50;;;;;;;7.10;3.53;;;9.70;85.80;;;;;;5114038;28;20039;-68
2022/12/20 04:06:16;;;;;;;6.32;3.70;;;9.70;85.80;;;;;;5114940;28;20062;-68
2022/12/20 04:08:42;;;;;;;6.65;4.45;;;9.70;85.90;;;;;;5105845;27;20035;-67
2022/12/20 04:11:17;;;;;;;9.05;4.25;;;9.70;85.90;;;;;;5118326;27;20047;-68
2022/12/20 04:13:51;;;;;;;6.55;4.20;;;9.70;86.00;;;;;;5124951;27;20039;-68
2022/12/20 04:16:25;;;;;;;5.65;3.90;;;9.70;86.00;;;;;;5118161;27;20053;-68
2022/12/20 04:18:51;;;;;;;;;;;9.70;86.00;;;;;;5117249;27;20263;-67
2022/12/20 04:21:26;;;;;;;7.03;4.10;;;9.70;85.80;;;;;;5125731;27;20006;-68
2022/12/20 04:23:51;;;;;;;6.60;4.47;;;9.70;86.10;;;;;;5118002;27;20063;-68
2022/12/20 04:26:18;;;;;;;5.93;4.13;;;9.70;86.10;;;;;;5118179;27;20567;-67
2022/12/20 04:28:44;;;;;;;7.65;4.15;;;9.70;86.10;;;;;;5117666;27;20397;-68
2022/12/20 04:31:10;;;;;;;7.72;4.57;;;9.70;86.10;;;;;;5114679;28;20043;-68
2022/12/20 04:33:35;;;;;;;5.85;4.00;;;9.70;86.10;;;;;;5113053;27;20194;-68
2022/12/20 04:36:02;;;;;;;7.90;4.72;;;9.70;86.10;;;;;;5118102;27;20035;-68
2022/12/20 04:38:27;;;;;;;7.90;4.45;;;9.70;86.10;;;;;;5100845;27;20035;-67
2022/12/20 04:40:54;;;;;;;8.07;4.47;;;9.70;86.20;;;;;;5117373;27;20039;-68
2022/12/20 04:43:21;;;;;;;5.80;4.03;;;9.70;86.20;;;;;;5117532;27;20075;-68
2022/12/20 04:45:48;;;;;;;7.65;4.35;;;9.70;86.30;;;;;;5114284;27;20038;-67
2022/12/20 04:48:14;;;;;;;6.53;4.15;;;9.70;86.30;;;;;;5117170;27;20506;-68
2022/12/20 04:50:40;;;;;;;8.88;4.63;;;9.70;86.30;;;;;;5117088;27;20043;-71
2022/12/20 04:55:50;;;;;;;6.60;4.00;;;9.80;86.50;;;;;;5117730;27;20486;-71
2022/12/20 04:58:16;;;;;;;6.90;4.25;;;9.70;86.40;;;;;;5117606;27;20046;-71
2022/12/20 05:00:41;;;;;;;7.85;4.53;;;9.80;86.50;;;;;;5117360;27;20039;-71
2022/12/20 05:03:07;;;;;;;6.10;3.97;;;9.80;86.40;;;;;;5117277;27;20035;-71
2022/12/20 05:05:33;;;;;;;6.68;3.80;;;9.80;86.50;;;;;;5117560;27;20091;-71
2022/12/20 05:07:58;;;;;;;7.85;4.78;;;9.80;86.50;;;;;;5109465;27;20059;-71
2022/12/20 05:10:25;;;;;;;7.25;3.90;;;9.90;86.50;;;;;;5127005;27;20088;-71
2022/12/20 05:12:50;;;;;;;7.05;3.70;;;9.80;86.50;;;;;;5117511;27;20394;-71
2022/12/20 05:15:16;;;;;;;7.95;4.28;;;9.80;86.50;;;;;;5118301;27;20035;-71
2022/12/20 05:17:42;;;;;;;6.85;3.58;;;9.90;86.50;;;;;;5106025;27;20031;-72
2022/12/20 05:20:08;;;;;;;9.80;4.00;;;9.90;86.50;;;;;;5129264;27;20035;-68
2022/12/20 05:28:02;;;;;;;7.03;4.07;;;9.90;86.40;;;;;;5133764;27;20429;-67
2022/12/20 05:30:28;;;;;;;6.90;3.53;;;9.90;86.40;;;;;;5116709;27;20039;-67
2022/12/20 05:32:54;;;;;;;6.00;3.58;;;9.90;86.30;;;;;;5116712;27;20073;-68
2022/12/20 05:35:20;;;;;;;6.00;3.55;;;10.00;86.30;;;;;;5116640;27;20490;-67
2022/12/20 05:37:46;;;;;;;8.52;3.80;;;10.00;86.20;;;;;;5116498;27;20043;-67
2022/12/20 05:40:11;;;;;;;4.65;3.63;;;10.00;86.10;;;;;;5099483;27;20032;-67
2022/12/20 05:42:37;;;;;;;4.75;3.55;;;10.00;86.00;;;;;;5116050;27;20492;-67
2022/12/20 05:45:04;;;;;;;6.25;4.30;;;10.00;86.00;;;;;;5116541;27;20039;-68
2022/12/20 05:47:32;;;;;;;5.75;3.65;;;10.00;85.90;;;;;;5116095;27;20042;-67
2022/12/20 05:50:02;;;;;;;5.28;3.30;;;10.00;85.90;;;;;;5116160;27;20123;-67
2022/12/20 05:52:29;;;;;;;5.53;3.50;;;10.00;85.80;;;;;;5116201;27;20570;-68
2022/12/20 05:54:55;;;;;;;5.63;3.55;;;10.00;85.70;;;;;;5116422;27;20077;-67
2022/12/20 05:57:21;;;;;;;5.75;3.70;;;10.00;85.60;;;;;;5116006;27;20039;-67
2022/12/20 05:59:47;;;;;;;5.90;3.45;;;10.10;85.60;;;;;;5099429;27;20436;-68
2022/12/20 06:02:13;;;;;;;5.65;3.30;;;10.10;85.60;;;;;;5115946;27;20485;-68
2022/12/20 06:04:39;;;;;;;6.00;3.38;;;10.10;85.50;;;;;;5116030;27;20097;-67
2022/12/20 06:07:05;;;;;;;7.28;4.40;;;10.10;85.50;;;;;;5116386;27;20078;-67
2022/12/20 06:09:31;;;;;;;5.78;3.38;;;10.10;85.40;;;;;;5116147;27;20035;-67
2022/12/20 06:11:58;;;;;;;5.95;3.60;;;10.10;85.40;;;;;;5116014;27;20393;-67
2022/12/20 06:14:24;;;;;;;5.40;3.20;;;10.10;85.40;;;;;;5115981;27;20058;-67
2022/12/20 06:16:50;;;;;;;7.63;3.92;;;10.10;85.40;;;;;;5115925;27;20039;-67
2022/12/20 06:19:15;;;;;;;6.40;4.00;;;10.10;85.40;;;;;;5114410;27;20530;-67
2022/12/20 06:21:41;;;;;;;4.95;3.30;;;10.10;85.40;;;;;;5098376;27;20039;-67
2022/12/20 06:24:07;;;;;;;6.72;3.70;;;10.10;85.40;;;;;;5098997;27;20180;-66
2022/12/20 06:26:36;;;;;;;7.65;4.28;;;10.10;85.50;;;;;;5116001;27;20505;-68
2022/12/20 06:29:06;;;;;;;6.18;3.72;;;10.20;85.70;;;;;;5099240;27;20050;-67
2022/12/20 06:31:34;;;;;;;6.55;4.53;;;10.20;85.70;;;;;;5115561;27;20043;-67
2022/12/20 06:34:00;;;;;;;7.80;4.55;;;10.20;85.80;;;;;;5098789;27;20035;-67
2022/12/20 06:36:26;;;;;;;6.38;4.57;;;10.20;85.90;;;;;;5098813;27;20569;-67
2022/12/20 06:38:52;;;;;;;8.60;4.30;;;10.20;85.90;;;;;;5115434;27;20047;-67
2022/12/20 06:41:17;;;;;;;6.55;4.22;;;10.20;86.10;;;;;;5115328;27;20041;-68
2022/12/20 06:43:43;;;;;;;5.38;4.18;;;10.20;86.50;;;;;;5115357;27;20035;-67
2022/12/20 06:46:09;;;;;;;5.20;4.07;;;10.20;86.20;;;;;;5115344;27;20035;-67
2022/12/20 06:48:35;;;;;;;8.13;4.28;;;10.20;86.30;;;;;;5115836;28;20081;-67
2022/12/20 06:51:00;;;;;;;7.25;4.95;;;10.20;86.30;;;;;;5115083;27;20038;-67
2022/12/20 06:53:26;;;;;;;7.60;4.72;;;10.20;86.40;;;;;;5114884;27;20046;-67
2022/12/20 06:55:52;;;;;;;6.15;4.65;;;10.20;86.50;;;;;;5115718;28;20043;-68
2022/12/20 06:58:18;;;;;;;7.68;4.80;;;10.20;86.50;;;;;;5098350;27;20513;-67
2022/12/20 07:00:44;;;;;;;5.78;4.45;;;10.20;86.60;;;;;;5115383;28;20160;-67
2022/12/20 07:03:10;;;;;;;5.88;4.65;;;10.20;86.70;;;;;;5115101;28;20122;-68
2022/12/20 07:05:35;;;;;;;7.78;5.07;;;10.20;86.70;;;;;;5114397;28;20043;-67
2022/12/20 07:08:03;;;;;;;7.22;5.18;;;10.20;86.80;;;;;;5115114;28;20039;-68
2022/12/20 07:10:29;;;;;;;6.50;5.45;;;10.10;86.80;;;;;;5114704;28;20035;-67
2022/12/20 07:12:55;;;;;;;8.38;5.82;;;10.20;87.10;;;;;;5114262;28;20103;-67
2022/12/20 07:15:21;;;;;;;8.85;5.35;;;10.10;87.00;;;;;;5114331;28;20043;-67
2022/12/20 07:17:47;;;;;;;9.57;5.55;;;10.10;87.00;;;;;;5114850;28;20035;-67
2022/12/20 07:20:15;;;;;;;9.32;6.25;;;10.20;87.10;;;;;;5115363;28;20027;-68
2022/12/20 07:22:41;;;;;;;7.30;5.53;;;10.20;87.20;;;;;;5098170;28;20486;-68
2022/12/20 07:25:07;;;;;;;9.48;6.25;;;10.20;87.60;;;;;;5115318;28;20126;-67
2022/12/20 07:27:32;;;;;;;7.50;5.72;;;10.20;87.30;;;;;;5115204;28;20043;-67
2022/12/20 07:29:59;;;;;;;9.00;5.78;;;10.20;87.30;;;;;;5115067;28;20406;-67
2022/12/20 07:32:24;;;;;;;12.00;6.85;;;10.20;87.30;;;;;;5098418;28;20091;-67
2022/12/20 07:34:50;;;;;;;7.93;5.90;;;10.20;87.40;;;;;;5115040;28;20389;-67
2022/12/20 07:37:16;;;;;;;9.45;5.97;;;10.20;87.40;;;;;;5115378;28;20541;-68
2022/12/20 07:39:41;;;;;;;8.00;5.50;;;10.20;87.50;;;;;;5115142;28;20043;-67
2022/12/20 07:42:08;;;;;;;9.43;6.10;;;10.20;87.90;;;;;;5133625;28;20409;-68
2022/12/20 07:44:34;;;;;;;10.52;5.28;;;10.20;87.90;;;;;;5117126;27;20414;-67
2022/12/20 07:47:00;;;;;;;7.47;4.95;;;10.20;87.60;;;;;;5101886;27;20031;-67
2022/12/20 07:49:25;;;;;;;7.97;5.50;;;10.20;87.60;;;;;;5118915;27;20046;-67
2022/12/20 07:51:55;;;;;;;6.93;5.47;;;10.30;87.70;;;;;;5118818;27;20047;-67
2022/12/20 07:54:27;;;;;;;8.13;5.07;;;10.30;87.80;;;;;;5119000;27;20047;-67
2022/12/20 07:57:00;;;;;;;6.72;5.25;;;10.30;87.80;;;;;;5137292;27;20047;-67
2022/12/20 07:59:35;;;;;;;7.97;4.80;;;10.20;87.70;;;;;;5101704;27;20039;-67
2022/12/20 08:02:01;;;;;;;;;;;10.20;87.70;;;;;;5118778;27;20043;-67
2022/12/20 08:04:29;;;;;;;7.72;4.43;;;10.30;87.50;;;;;;5118206;27;20047;-68
2022/12/20 08:06:57;;;;;;;8.52;4.97;;;10.20;87.70;;;;;;5118584;27;20126;-68
2022/12/20 08:09:27;;;;;;;6.53;4.47;;;10.20;87.70;;;;;;5118617;27;20035;-67
2022/12/20 08:11:53;;;;;;;7.57;4.28;;;10.30;88.10;;;;;;5118438;27;20046;-68
2022/12/20 08:14:19;;;;;;;6.65;4.28;;;10.30;87.60;;;;;;5118282;27;20055;-67
2022/12/20 08:16:45;;;;;;;6.63;3.72;;;10.30;87.60;;;;;;5118386;27;20100;-68
2022/12/20 08:19:11;;;;;;;6.40;4.32;;;10.30;87.50;;;;;;5118504;27;20035;-66
2022/12/20 08:21:37;;;;;;;8.05;4.40;;;10.30;87.50;;;;;;5117674;27;20054;-67
2022/12/20 08:24:03;;;;;;;6.47;4.20;;;10.30;87.40;;;;;;5118224;27;20043;-67
2022/12/20 08:26:29;;;;;;;7.15;3.85;;;10.30;87.30;;;;;;5118165;27;20122;-67
2022/12/20 08:28:55;;;;;;;6.55;3.92;;;10.30;87.30;;;;;;5117461;27;20127;-67
2022/12/20 08:31:21;;;;;;;5.15;3.33;;;10.30;87.20;;;;;;5117981;27;20058;-67
2022/12/20 08:33:46;;;;;;;4.55;3.55;;;10.40;87.20;;;;;;5117609;27;20043;-67
2022/12/20 08:36:13;;;;;;;5.55;3.40;;;10.40;87.00;;;;;;5100956;27;20077;-67
2022/12/20 08:38:39;;;;;;;7.05;3.47;;;10.40;86.90;;;;;;5117510;27;20039;-67
2022/12/20 08:41:11;;;;;;;6.75;3.60;;;10.40;86.80;;;;;;5100676;27;20426;-67
2022/12/20 08:43:37;;;;;;;5.57;3.35;;;10.40;86.70;;;;;;5117468;27;20099;-67
2022/12/20 08:46:04;;;;;;;5.13;3.40;;;10.40;86.60;;;;;;5117869;27;20080;-67
2022/12/20 08:48:31;;;;;;;6.18;3.50;;;10.40;86.50;;;;;;5117833;27;20046;-67
2022/12/20 08:50:59;;;;;;;8.70;4.25;;;10.40;86.40;;;;;;5117588;27;20047;-67
2022/12/20 08:53:26;;;;;;;5.47;3.67;;;10.40;86.20;;;;;;5100829;27;20104;-67
2022/12/20 08:55:52;;;;;;;5.63;3.42;;;10.40;86.10;;;;;;5117518;27;20390;-67
2022/12/20 08:58:20;;;;;;;6.00;3.30;;;10.40;86.00;;;;;;5135997;27;20039;-67
2022/12/20 09:00:46;;;;;;;5.57;3.28;;;10.50;86.00;;;;;;5100414;27;20043;-67
2022/12/20 09:03:12;;;;;;;5.38;3.20;;;10.40;85.80;;;;;;5117262;27;20043;-67
2022/12/20 09:05:47;;;;;;;6.97;3.53;;;10.50;85.80;;;;;;5097254;28;20051;-67
2022/12/20 09:08:15;;;;;;;5.70;3.40;;;10.50;85.70;;;;;;5097101;28;20043;-67
2022/12/20 09:10:41;;;;;;;5.03;3.28;;;10.50;86.10;;;;;;5096797;28;20092;-67
2022/12/20 09:13:07;;;;;;;5.15;2.75;;;10.50;85.60;;;;;;5097819;27;20118;-67
2022/12/20 09:15:34;;;;;;;7.70;3.20;;;10.50;85.50;;;;;;5117297;27;20118;-67
2022/12/20 09:18:00;;;;;;;6.55;3.10;;;10.50;85.50;;;;;;5117284;27;20099;-67
2022/12/20 09:20:27;;;;;;;5.65;3.05;;;10.50;85.80;;;;;;5117125;27;20039;-67
2022/12/20 09:22:53;;;;;;;5.85;3.28;;;10.50;85.40;;;;;;5116712;27;20043;-67
2022/12/20 09:25:19;;;;;;;4.70;2.70;;;10.60;85.40;;;;;;5116840;27;20035;-67
2022/12/20 09:27:44;;;;;;;6.55;3.20;;;10.60;85.30;;;;;;5099806;27;20051;-67
2022/12/20 09:30:11;;;;;;;4.78;3.10;;;10.60;85.30;;;;;;5099874;27;20047;-67
2022/12/20 09:32:36;;;;;;;5.70;2.92;;;10.60;85.30;;;;;;5099781;27;20039;-67
2022/12/20 09:35:03;;;;;;;5.57;3.28;;;10.50;85.20;;;;;;5116753;27;20047;-67
2022/12/20 09:37:30;;;;;;;4.90;2.80;;;10.60;85.30;;;;;;5116896;27;20636;-66
2022/12/20 09:39:56;;;;;;;4.65;2.95;;;10.60;85.30;;;;;;5116915;27;20413;-67
2022/12/20 09:42:26;;;;;;;5.40;3.17;;;10.60;85.30;;;;;;5116679;27;20035;-67
2022/12/20 09:45:07;;;;;;;5.45;2.97;;;10.60;85.30;;;;;;5116472;27;20043;-67
2022/12/20 09:47:35;;;;;;;6.82;2.83;;;10.60;85.30;;;;;;5116847;27;20389;-67
2022/12/20 09:50:03;;;;;;;6.63;2.83;;;10.60;85.30;;;;;;5116331;27;20041;-67
2022/12/20 09:53:05;;;;;;;6.75;3.13;;;10.60;85.30;;;;;;5116836;27;20050;-67
2022/12/20 09:55:48;;;;;;;6.30;3.80;;;10.60;85.30;;;;;;5116234;27;20043;-67
2022/12/20 09:58:36;;;;;;;4.30;3.05;;;10.60;85.40;;;;;;5116021;27;20042;-67
2022/12/20 10:01:19;;;;;;;4.30;2.92;;;10.60;85.40;;;;;;5116239;27;20044;-67
2022/12/20 10:03:45;;;;;;;7.30;3.20;;;10.60;85.40;;;;;;5115735;27;20518;-67
2022/12/20 10:06:35;;;;;;;9.13;3.33;;;10.60;85.40;;;;;;5116135;27;20070;-67
2022/12/20 10:09:04;;;;;;;8.10;2.90;;;10.60;85.50;;;;;;5115884;27;20042;-67
2022/12/20 10:11:36;;;;;;;5.03;3.30;;;10.60;85.50;;;;;;5116147;27;20043;-67
2022/12/20 10:14:07;;;;;;;5.53;3.15;;;10.60;85.60;;;;;;5116354;27;20402;-67
2022/12/20 10:16:43;;;;;;;6.20;3.60;;;10.60;85.60;;;;;;5115729;27;20486;-67
2022/12/20 10:19:15;;;;;;;5.53;2.70;;;10.60;85.60;;;;;;5099211;27;20110;-67
2022/12/20 10:22:04;;;;;;;6.25;2.83;;;10.60;85.60;;;;;;5116062;27;20084;-67
2022/12/20 10:24:32;;;;;;;4.30;3.10;;;10.60;85.60;;;;;;5098649;27;20031;-67
2022/12/20 10:27:36;;;;;;;4.82;2.80;;;10.60;85.60;;;;;;5115710;27;20039;-67
2022/12/20 10:30:14;;;;;;;6.13;3.05;;;10.60;85.70;;;;;;5112786;28;20123;-67
2022/12/20 10:32:43;;;;;;;4.55;2.97;;;10.60;85.70;;;;;;5115192;28;20100;-67
2022/12/20 10:35:09;;;;;;;6.25;3.03;;;10.50;85.70;;;;;;5097801;28;20116;-67
2022/12/20 10:37:35;;;;;;;5.13;2.97;;;10.60;85.70;;;;;;5114833;28;20409;-67
2022/12/20 10:40:01;;;;;;;5.68;3.35;;;10.60;85.80;;;;;;5097884;28;20051;-67
2022/12/20 10:42:37;;;;;;;8.68;3.33;;;10.60;85.90;;;;;;5114813;28;20043;-67
2022/12/20 10:45:24;;;;;;;4.50;2.80;;;10.60;86.10;;;;;;5114580;28;20486;-67
2022/12/20 10:47:50;;;;;;;5.50;3.08;;;10.60;86.10;;;;;;5097180;28;20130;-67
2022/12/20 10:50:20;;;;;;;6.15;3.20;;;10.60;86.10;;;;;;5114571;28;20039;-67
2022/12/20 10:53:03;;;;;;;6.07;3.20;;;10.60;86.20;;;;;;5114291;28;20122;-67
2022/12/20 10:55:42;;;;;;;7.45;3.40;;;10.60;86.20;;;;;;5114941;28;20398;-68
2022/12/20 10:58:29;;;;;;;6.30;3.20;;;10.60;86.30;;;;;;5114944;28;20043;-68
2022/12/20 11:01:17;;;;;;;5.00;2.92;;;10.60;86.40;;;;;;5114430;28;20075;-67
2022/12/20 11:03:52;;;;;;;6.47;3.30;;;10.60;86.40;;;;;;5114561;28;20050;-67
2022/12/20 11:06:19;;;;;;;6.03;3.28;;;10.60;86.60;;;;;;5114519;28;20114;-67
2022/12/20 11:08:47;;;;;;;5.00;3.17;;;10.60;86.50;;;;;;5114833;28;20138;-67
2022/12/20 11:11:23;;;;;;;7.13;3.20;;;10.60;86.50;;;;;;5114358;28;20046;-67
2022/12/20 11:13:50;;;;;;;4.50;2.67;;;10.70;86.70;;;;;;5114484;28;20390;-67
2022/12/20 11:16:35;;;;;;;4.90;2.88;;;10.60;86.60;;;;;;5114440;28;20086;-67
2022/12/20 11:19:29;;;;;;;6.15;3.38;;;10.70;86.80;;;;;;5115881;28;20439;-67
2022/12/20 11:22:45;;;;;;;5.65;3.17;;;10.70;86.70;;;;;;5114717;28;20467;-67
2022/12/20 11:25:46;;;;;;;4.63;2.60;;;10.70;86.70;;;;;;5075221;28;20063;-67
2022/12/20 11:28:40;;;;;;;5.03;2.80;;;10.70;86.80;;;;;;5079212;27;1108096;-68
2022/12/20 11:31:26;;;;;;;5.55;3.20;;;10.60;86.70;;;;;;5119393;27;20390;-67
2022/12/20 11:33:52;;;;;;;5.78;3.00;;;10.70;86.80;;;;;;5119162;27;20047;-68
2022/12/20 11:36:44;;;;;;;5.15;2.90;;;10.70;86.70;;;;;;5119168;27;20047;-68
2022/12/20 11:39:31;;;;;;;5.28;3.10;;;10.70;86.80;;;;;;5118398;27;20505;-68
2022/12/20 11:42:09;;;;;;;4.03;2.55;;;10.70;86.80;;;;;;5118681;27;20039;-67
2022/12/20 11:45:06;;;;;;;6.93;2.55;;;10.70;86.90;;;;;;5119006;27;20046;-67
2022/12/20 11:47:52;;;;;;;5.43;2.67;;;10.70;86.90;;;;;;5118582;27;20043;-67
2022/12/20 11:50:31;;;;;;;7.80;3.80;;;10.70;86.80;;;;;;5102061;27;20051;-67
2022/12/20 11:53:38;;;;;;;5.55;2.97;;;10.70;86.90;;;;;;5118879;27;20443;-68
2022/12/20 11:56:33;;;;;;;6.75;3.05;;;10.70;86.80;;;;;;5083979;27;20043;-67
2022/12/20 11:59:25;;;;;;;;;;;10.70;86.90;;;;;;5110136;27;20490;-68
2022/12/20 12:02:13;;;;;;;4.47;2.78;;;10.70;86.60;;;;;;5080099;27;19975;-67
2022/12/20 12:04:46;;;;;;;3.75;2.58;;;10.70;87.00;;;;;;5118138;27;20474;-67
2022/12/20 12:07:14;;;;;;;4.82;2.90;;;10.70;87.00;;;;;;5101551;27;20042;-68
2022/12/20 12:10:14;;;;;;;4.38;3.30;;;10.70;86.90;;;;;;5118063;27;20500;-69
2022/12/20 12:13:08;;;;;;;5.32;3.15;;;10.70;87.00;;;;;;5115687;27;20046;-68
2022/12/20 12:15:41;;;;;;;6.85;4.65;;;10.70;86.90;;;;;;5086716;27;20512;-68
2022/12/20 12:18:18;;;;;;;6.25;3.22;;;10.70;87.00;;;;;;5100701;27;20038;-68
2022/12/20 12:20:47;;;;;;;6.25;3.38;;;10.70;87.00;;;;;;5115904;27;20164;-67
2022/12/20 12:23:12;;;;;;;4.97;3.17;;;10.70;87.10;;;;;;5100757;27;20057;-68
2022/12/20 12:25:38;;;;;;;7.13;3.30;;;10.70;87.00;;;;;;5117751;27;20493;-68
2022/12/20 12:28:04;;;;;;;5.18;3.42;;;10.70;87.10;;;;;;5117191;27;20043;-68
2022/12/20 12:30:38;;;;;;;6.95;3.67;;;10.70;87.10;;;;;;5117302;27;20488;-68
2022/12/20 12:33:13;;;;;;;7.78;3.72;;;10.70;87.20;;;;;;5118383;27;20046;-68
2022/12/20 12:35:51;;;;;;;6.30;3.55;;;10.80;87.20;;;;;;5115738;27;20047;-68
2022/12/20 12:38:32;;;;;;;6.22;3.80;;;10.70;87.20;;;;;;5090074;27;20039;-68
2022/12/20 12:41:19;;;;;;;5.10;3.45;;;10.70;87.20;;;;;;5118192;27;20043;-68
2022/12/20 12:43:47;;;;;;;6.88;4.10;;;10.80;87.30;;;;;;5117735;27;20047;-68
2022/12/20 12:46:31;;;;;;;4.95;3.83;;;10.70;87.20;;;;;;5118089;27;20049;-68
2022/12/20 12:49:05;;;;;;;5.78;3.70;;;10.80;87.30;;;;;;5117210;27;20031;-68
2022/12/20 12:51:33;;;;;;;4.73;3.87;;;10.70;87.20;;;;;;5117634;27;20043;-68
2022/12/20 12:54:23;;;;;;;6.07;4.45;;;10.70;87.20;;;;;;5118001;27;20445;-68
2022/12/20 12:56:50;;;;;;;5.40;3.70;;;10.80;87.30;;;;;;5100660;27;20074;-68
2022/12/20 12:59:31;;;;;;;5.68;3.40;;;10.70;87.20;;;;;;5100407;27;20504;-68
2022/12/20 13:02:03;;;;;;;5.72;3.83;;;10.70;87.30;;;;;;5117311;27;20047;-68
2022/12/20 13:04:56;;;;;;;5.07;3.90;;;10.70;87.30;;;;;;5132418;27;20050;-68
2022/12/20 13:07:31;;;;;;;5.05;3.50;;;10.70;87.20;;;;;;5116581;27;20046;-69
2022/12/20 13:09:57;;;;;;;;;;;10.70;87.30;;;;;;5101107;27;20039;-70
2022/12/20 13:12:35;;;;;;;5.93;4.32;;;10.70;87.00;;;;;;5117282;27;19915;-70
2022/12/20 13:15:21;;;;;;;5.38;4.15;;;10.70;87.40;;;;;;5117565;27;20382;-70
2022/12/20 13:17:53;;;;;;;6.07;4.70;;;10.70;87.30;;;;;;5096809;27;20201;-73
2022/12/20 13:20:31;;;;;;;6.07;4.47;;;10.70;87.50;;;;;;5117253;27;20039;-73
2022/12/20 13:23:10;;;;;;;7.63;4.88;;;10.70;87.50;;;;;;5117335;27;20086;-72